Time;durP1;ratioP1;P1;durP2;ratioP2;P2;SDS_P1;SDS_P2;PMS_P1;PMS_P2;Temp;Humidity;BMP_temperature;BMP_pressure;BME280_temperature;BME280_humidity;BME280_pressure;Samples;Min_cycle;Max_cycle;Signal;HPM_P1;HPM_P2
2023/12/24 00:00:34;;;;;;;2.45;1.50;;;;;;;;;;5004659;28;20034;-78
2023/12/24 00:03:23;;;;;;;3.42;1.70;;;;;;;;;;5020199;28;20042;-79
2023/12/24 00:10:05;;;;;;;4.53;1.92;;;;;;;;;;5039600;28;20052;-78
2023/12/24 00:12:31;;;;;;;4.25;1.63;;;;;;;;;;5008454;28;20056;-79
2023/12/24 00:14:57;;;;;;;3.50;1.58;;;;;;;;;;5016510;28;20074;-79
2023/12/24 00:25:17;;;;;;;7.18;1.73;;;;;;;;;;5853288;22;20119;-80
2023/12/24 00:27:42;;;;;;;5.35;1.95;;;;;;;;;;5032732;28;20083;-79
2023/12/24 00:30:10;;;;;;;2.92;1.60;;;;;;;;;;5019201;28;20037;-79
2023/12/24 00:32:35;;;;;;;4.45;1.80;;;;;;;;;;5020959;28;20030;-79
2023/12/24 00:35:01;;;;;;;5.72;1.88;;;;;;;;;;5035503;28;20104;-79
2023/12/24 00:37:27;;;;;;;3.33;1.85;;;;;;;;;;5045501;28;20065;-79
2023/12/24 00:39:56;;;;;;;4.65;1.98;;;;;;;;;;5024441;28;20047;-79
2023/12/24 00:42:25;;;;;;;3.20;1.85;;;;;;;;;;5007629;28;20022;-78
2023/12/24 00:44:51;;;;;;;4.20;1.77;;;;;;;;;;5022508;28;20416;-78
2023/12/24 00:47:51;;;;;;;4.63;2.03;;;;;;;;;;5019826;28;20042;-79
2023/12/24 00:50:22;;;;;;;2.60;1.55;;;;;;;;;;4979009;28;20054;-78
2023/12/24 00:52:48;;;;;;;4.80;1.70;;;;;;;;;;5022411;28;20057;-78
2023/12/24 00:55:13;;;;;;;3.88;1.80;;;;;;;;;;5013798;28;20063;-79
2023/12/24 00:57:39;;;;;;;4.55;2.22;;;;;;;;;;5028125;28;20441;-79
2023/12/24 01:00:05;;;;;;;9.57;1.92;;;;;;;;;;5028974;28;20057;-78
2023/12/24 01:02:31;;;;;;;3.80;1.60;;;;;;;;;;5029742;28;20033;-79
2023/12/24 01:05:04;;;;;;;3.72;1.60;;;;;;;;;;5028557;28;20049;-79
2023/12/24 01:07:34;;;;;;;3.20;1.80;;;;;;;;;;5027584;28;20033;-78
2023/12/24 01:10:26;;;;;;;3.38;1.55;;;;;;;;;;5041186;28;20033;-78
2023/12/24 01:12:52;;;;;;;6.57;1.80;;;;;;;;;;5005137;28;20048;-78
2023/12/24 01:15:20;;;;;;;4.47;1.80;;;;;;;;;;5022255;28;20038;-79
2023/12/24 01:17:50;;;;;;;4.28;1.83;;;;;;;;;;5021375;28;20034;-79
2023/12/24 01:20:22;;;;;;;6.75;1.88;;;;;;;;;;5025154;28;20457;-78
2023/12/24 01:22:49;;;;;;;5.03;1.75;;;;;;;;;;4991902;28;20057;-78
2023/12/24 01:25:21;;;;;;;4.45;1.70;;;;;;;;;;5031232;28;20318;-78
2023/12/24 01:27:46;;;;;;;5.25;2.00;;;;;;;;;;5007143;28;20100;-79
2023/12/24 01:30:12;;;;;;;3.65;1.80;;;;;;;;;;5052569;28;20030;-77
2023/12/24 01:32:38;;;;;;;3.15;1.80;;;;;;;;;;5036693;28;20020;-79
2023/12/24 01:35:04;;;;;;;5.18;2.10;;;;;;;;;;5032439;28;20031;-79
2023/12/24 01:37:30;;;;;;;4.00;2.03;;;;;;;;;;5028274;28;20029;-79
2023/12/24 01:39:56;;;;;;;2.80;1.48;;;;;;;;;;5006883;28;20036;-78
2023/12/24 01:42:23;;;;;;;3.30;1.65;;;;;;;;;;5021737;28;20096;-78
2023/12/24 01:44:50;;;;;;;3.05;1.77;;;;;;;;;;5004918;28;20033;-77
2023/12/24 01:47:15;;;;;;;5.05;2.13;;;;;;;;;;5005688;28;20106;-79
2023/12/24 01:49:45;;;;;;;6.28;2.42;;;;;;;;;;5023266;28;20034;-79
2023/12/24 01:52:12;;;;;;;4.78;2.17;;;;;;;;;;5023263;28;20498;-79
2023/12/24 01:54:39;;;;;;;3.55;1.65;;;;;;;;;;5039235;28;20037;-78
2023/12/24 01:57:05;;;;;;;4.25;2.05;;;;;;;;;;5010261;28;20109;-79
2023/12/24 01:59:40;;;;;;;3.40;1.80;;;;;;;;;;5012799;28;20104;-79
2023/12/24 02:02:12;;;;;;;4.47;1.83;;;;;;;;;;5032964;28;20030;-80
2023/12/24 02:04:43;;;;;;;3.83;1.63;;;;;;;;;;5043588;28;20033;-78
2023/12/24 02:07:11;;;;;;;5.05;2.20;;;;;;;;;;5009388;28;20445;-79
2023/12/24 02:09:37;;;;;;;4.35;2.00;;;;;;;;;;5041810;28;20037;-79
2023/12/24 02:12:10;;;;;;;3.83;1.92;;;;;;;;;;4990785;28;20041;-79
2023/12/24 02:14:37;;;;;;;5.63;1.90;;;;;;;;;;5038400;28;20033;-79
2023/12/24 02:17:04;;;;;;;6.90;2.08;;;;;;;;;;5007306;28;20531;-78
2023/12/24 02:19:37;;;;;;;7.70;2.55;;;;;;;;;;4991285;28;20032;-79
2023/12/24 02:22:05;;;;;;;2.67;1.60;;;;;;;;;;5007200;28;20026;-80
2023/12/24 02:24:31;;;;;;;4.60;1.98;;;;;;;;;;5023284;28;20068;-79
2023/12/24 02:27:04;;;;;;;2.53;1.55;;;;;;;;;;5006874;28;20109;-79
2023/12/24 02:29:37;;;;;;;6.50;1.45;;;;;;;;;;4991014;28;20037;-79
2023/12/24 02:32:07;;;;;;;4.10;1.80;;;;;;;;;;5007398;28;20046;-78
2023/12/24 02:34:35;;;;;;;3.80;1.50;;;;;;;;;;5011086;28;20094;-78
2023/12/24 02:37:06;;;;;;;3.78;1.48;;;;;;;;;;5007874;28;20473;-78
2023/12/24 02:39:41;;;;;;;3.90;1.50;;;;;;;;;;5007047;28;20057;-77
2023/12/24 02:42:15;;;;;;;9.93;1.90;;;;;;;;;;5023354;28;20064;-78
2023/12/24 02:44:44;;;;;;;3.20;1.48;;;;;;;;;;5024337;28;20121;-78
2023/12/24 02:47:13;;;;;;;3.70;1.52;;;;;;;;;;5022522;28;20068;-78
2023/12/24 02:49:50;;;;;;;5.00;1.67;;;;;;;;;;5025246;28;20065;-79
2023/12/24 02:52:24;;;;;;;7.05;1.52;;;;;;;;;;5027359;28;20039;-79
2023/12/24 02:54:52;;;;;;;;;;;;;;;;;;5028257;28;20199;-78
2023/12/24 02:57:18;;;;;;;3.00;1.40;;;;;;;;;;5029581;28;19909;-78
2023/12/24 02:59:44;;;;;;;7.78;1.75;;;;;;;;;;5035815;28;20029;-78
2023/12/24 03:02:10;;;;;;;4.55;1.60;;;;;;;;;;5001656;28;20057;-78
2023/12/24 03:04:42;;;;;;;5.57;1.73;;;;;;;;;;5031481;28;20041;-79
2023/12/24 03:07:28;;;;;;;6.85;1.60;;;;;;;;;;5046556;28;20068;-78
2023/12/24 03:09:55;;;;;;;2.60;1.20;;;;;;;;;;5009863;28;20049;-77
2023/12/24 03:12:23;;;;;;;3.83;1.33;;;;;;;;;;5018456;28;20037;-78
2023/12/24 03:14:49;;;;;;;6.93;1.67;;;;;;;;;;5015756;28;20029;-77
2023/12/24 03:17:27;;;;;;;5.50;1.48;;;;;;;;;;5045645;28;20031;-78
2023/12/24 03:19:55;;;;;;;3.85;1.65;;;;;;;;;;5011050;28;20049;-78
2023/12/24 03:22:25;;;;;;;2.17;1.25;;;;;;;;;;5046462;28;20064;-78
2023/12/24 03:24:51;;;;;;;3.03;1.50;;;;;;;;;;5026771;28;20037;-78
2023/12/24 03:27:18;;;;;;;2.38;1.20;;;;;;;;;;5010774;28;20030;-78
2023/12/24 03:29:44;;;;;;;5.80;1.60;;;;;;;;;;5015089;28;20068;-79
2023/12/24 03:32:16;;;;;;;5.00;1.83;;;;;;;;;;5051886;28;20109;-78
2023/12/24 03:34:41;;;;;;;5.30;1.40;;;;;;;;;;5029513;28;20033;-78
2023/12/24 03:37:07;;;;;;;4.72;1.70;;;;;;;;;;5031583;28;20025;-77
2023/12/24 03:39:33;;;;;;;4.22;1.63;;;;;;;;;;5011670;28;20030;-78
2023/12/24 03:42:01;;;;;;;3.83;1.50;;;;;;;;;;5007614;28;20042;-78
2023/12/24 03:44:27;;;;;;;4.65;1.50;;;;;;;;;;4974334;28;20033;-78
2023/12/24 03:46:52;;;;;;;5.32;2.17;;;;;;;;;;5011896;28;20141;-78
2023/12/24 03:49:19;;;;;;;4.80;1.35;;;;;;;;;;4993338;28;20060;-78
2023/12/24 03:51:50;;;;;;;3.10;1.25;;;;;;;;;;5022646;28;20050;-78
2023/12/24 03:54:21;;;;;;;9.23;1.30;;;;;;;;;;5043931;28;20044;-78
2023/12/24 03:56:50;;;;;;;5.95;1.75;;;;;;;;;;5045075;28;20443;-78
2023/12/24 03:59:16;;;;;;;4.47;1.70;;;;;;;;;;5042279;28;20034;-79
2023/12/24 04:01:42;;;;;;;4.82;1.48;;;;;;;;;;5039526;28;20037;-78
2023/12/24 04:04:12;;;;;;;5.75;1.60;;;;;;;;;;5025124;28;20060;-77
2023/12/24 04:06:38;;;;;;;7.68;1.83;;;;;;;;;;5042905;28;20033;-77
2023/12/24 04:09:04;;;;;;;5.53;1.52;;;;;;;;;;5039626;28;20040;-78
2023/12/24 04:11:31;;;;;;;6.40;1.42;;;;;;;;;;5039920;28;20488;-78
2023/12/24 04:13:58;;;;;;;5.45;1.50;;;;;;;;;;5021972;28;20128;-77
2023/12/24 04:16:24;;;;;;;5.05;1.50;;;;;;;;;;5022010;28;20439;-78
2023/12/24 04:18:51;;;;;;;2.80;1.90;;;;;;;;;;5003724;28;20057;-77
2023/12/24 04:21:17;;;;;;;6.50;1.33;;;;;;;;;;5019694;28;20060;-77
2023/12/24 04:23:42;;;;;;;4.13;1.38;;;;;;;;;;5041074;28;20030;-77
2023/12/24 04:26:16;;;;;;;7.22;2.55;;;;;;;;;;5019460;28;20034;-78
2023/12/24 04:28:42;;;;;;;5.30;1.63;;;;;;;;;;5020670;28;20042;-78
2023/12/24 04:31:18;;;;;;;5.05;1.48;;;;;;;;;;5004772;28;20038;-78
2023/12/24 04:33:44;;;;;;;3.20;1.38;;;;;;;;;;5003904;28;20030;-78
2023/12/24 04:36:19;;;;;;;5.13;1.33;;;;;;;;;;5003562;28;20046;-78
2023/12/24 04:38:45;;;;;;;3.60;1.45;;;;;;;;;;5020224;28;20037;-77
2023/12/24 04:41:18;;;;;;;4.45;1.60;;;;;;;;;;5002500;28;20519;-77
2023/12/24 04:43:43;;;;;;;7.60;2.00;;;;;;;;;;5022902;28;20561;-77
2023/12/24 04:46:09;;;;;;;3.78;1.50;;;;;;;;;;5037958;28;20045;-77
2023/12/24 04:48:34;;;;;;;6.60;1.42;;;;;;;;;;5038352;28;20037;-77
2023/12/24 04:51:00;;;;;;;6.80;1.52;;;;;;;;;;5006642;28;20218;-77
2023/12/24 04:53:26;;;;;;;6.13;1.60;;;;;;;;;;5022547;28;20029;-77
2023/12/24 04:55:55;;;;;;;4.82;1.48;;;;;;;;;;5005304;28;20048;-77
2023/12/24 04:58:24;;;;;;;4.05;1.52;;;;;;;;;;5027320;28;20032;-77
2023/12/24 05:00:51;;;;;;;4.00;1.30;;;;;;;;;;5011603;28;20096;-77
2023/12/24 05:03:16;;;;;;;6.32;1.50;;;;;;;;;;5035960;28;20034;-77
2023/12/24 05:05:42;;;;;;;3.47;1.85;;;;;;;;;;5035025;28;20048;-78
2023/12/24 05:08:09;;;;;;;7.97;1.33;;;;;;;;;;5037446;28;20033;-77
2023/12/24 05:10:35;;;;;;;2.97;1.52;;;;;;;;;;5018562;28;20039;-77
2023/12/24 05:13:01;;;;;;;8.95;1.30;;;;;;;;;;5019884;28;20041;-78
2023/12/24 05:15:28;;;;;;;3.40;1.25;;;;;;;;;;5015126;28;20038;-79
2023/12/24 05:17:54;;;;;;;3.22;1.10;;;;;;;;;;5015031;28;20022;-77
2023/12/24 05:20:19;;;;;;;5.22;1.23;;;;;;;;;;5007737;28;20026;-78
2023/12/24 05:22:45;;;;;;;2.25;0.90;;;;;;;;;;5001787;28;20037;-77
2023/12/24 05:25:11;;;;;;;3.75;1.10;;;;;;;;;;5002988;28;20057;-77
2023/12/24 05:27:38;;;;;;;5.50;1.10;;;;;;;;;;5013221;28;20033;-78
2023/12/24 05:30:06;;;;;;;4.45;1.15;;;;;;;;;;4997328;28;20113;-78
2023/12/24 05:32:42;;;;;;;4.18;1.00;;;;;;;;;;4994106;28;20034;-77
2023/12/24 05:35:07;;;;;;;3.30;0.85;;;;;;;;;;5008888;28;20034;-77
2023/12/24 05:37:34;;;;;;;2.30;0.98;;;;;;;;;;5006184;28;20048;-78
2023/12/24 05:40:01;;;;;;;2.28;0.60;;;;;;;;;;4996189;28;20148;-78
2023/12/24 05:42:34;;;;;;;4.95;1.20;;;;;;;;;;5028342;28;20102;-77
2023/12/24 05:44:59;;;;;;;1.40;0.73;;;;;;;;;;5023661;28;20053;-77
2023/12/24 05:47:25;;;;;;;4.88;0.82;;;;;;;;;;5006884;28;20033;-77
2023/12/24 05:49:53;;;;;;;7.00;0.90;;;;;;;;;;5038469;28;20041;-77
2023/12/24 05:56:13;;;;;;;2.50;0.50;;;;;;;;;;5041444;28;20033;-77
2023/12/24 05:59:05;;;;;;;3.53;0.70;;;;;;;;;;5027587;28;20187;-77
2023/12/24 06:01:35;;;;;;;1.30;0.40;;;;;;;;;;5039849;28;20049;-77
2023/12/24 06:04:02;;;;;;;1.67;0.50;;;;;;;;;;5007858;28;20057;-77
2023/12/24 06:06:27;;;;;;;2.08;0.70;;;;;;;;;;5023174;28;20044;-76
2023/12/24 06:08:53;;;;;;;1.13;0.25;;;;;;;;;;5021693;28;20484;-76
2023/12/24 06:11:21;;;;;;;6.82;0.60;;;;;;;;;;5005616;28;20034;-77
2023/12/24 06:13:47;;;;;;;1.73;0.40;;;;;;;;;;5009701;28;20049;-78
2023/12/24 06:16:13;;;;;;;1.55;0.50;;;;;;;;;;5019624;28;20108;-77
2023/12/24 06:18:39;;;;;;;2.72;0.57;;;;;;;;;;5035995;28;20029;-76
2023/12/24 06:21:06;;;;;;;0.88;0.40;;;;;;;;;;5036154;28;20025;-76
2023/12/24 06:23:32;;;;;;;0.35;0.30;;;;;;;;;;5052547;28;20021;-76
2023/12/24 06:25:58;;;;;;;0.40;0.30;;;;;;;;;;5036582;28;20098;-78
2023/12/24 06:28:24;;;;;;;1.38;0.47;;;;;;;;;;5035087;28;20041;-76
2023/12/24 06:30:49;;;;;;;0.82;0.40;;;;;;;;;;5035251;28;20060;-77
2023/12/24 06:33:15;;;;;;;1.50;0.30;;;;;;;;;;5019447;28;20049;-76
2023/12/24 06:35:40;;;;;;;1.40;0.30;;;;;;;;;;5028748;28;20084;-78
2023/12/24 06:38:06;;;;;;;0.55;0.20;;;;;;;;;;4999748;28;20045;-77
2023/12/24 06:40:32;;;;;;;1.65;0.30;;;;;;;;;;5029072;28;20030;-77
2023/12/24 06:42:59;;;;;;;1.95;0.22;;;;;;;;;;4998309;28;20049;-77
2023/12/24 06:45:34;;;;;;;0.40;0.20;;;;;;;;;;5002133;28;20042;-76
2023/12/24 06:48:02;;;;;;;0.20;0.20;;;;;;;;;;5020350;28;20018;-76
2023/12/24 06:50:29;;;;;;;0.65;0.20;;;;;;;;;;5020081;28;20056;-76
2023/12/24 06:52:56;;;;;;;0.17;0.10;;;;;;;;;;5020210;28;20038;-77
2023/12/24 06:55:21;;;;;;;1.00;0.40;;;;;;;;;;5040908;28;20436;-77
2023/12/24 06:57:47;;;;;;;0.38;0.20;;;;;;;;;;5053666;28;20366;-78
2023/12/24 07:00:13;;;;;;;0.68;0.17;;;;;;;;;;5035341;28;20057;-77
2023/12/24 07:02:39;;;;;;;0.50;0.30;;;;;;;;;;5013563;28;20041;-75
2023/12/24 07:05:04;;;;;;;0.25;0.17;;;;;;;;;;5011975;28;20041;-76
2023/12/24 07:07:30;;;;;;;0.70;0.30;;;;;;;;;;5006785;28;20045;-77
2023/12/24 07:09:55;;;;;;;0.30;0.15;;;;;;;;;;5022746;28;20033;-78
2023/12/24 07:12:21;;;;;;;0.25;0.17;;;;;;;;;;5004988;28;20044;-78
2023/12/24 07:14:47;;;;;;;0.32;0.13;;;;;;;;;;5020804;28;20087;-78
2023/12/24 07:17:12;;;;;;;0.32;0.15;;;;;;;;;;5021598;28;20029;-77
2023/12/24 07:19:37;;;;;;;0.70;0.10;;;;;;;;;;5021215;28;20057;-77
2023/12/24 07:22:03;;;;;;;0.32;0.25;;;;;;;;;;5021196;28;20025;-77
2023/12/24 07:24:29;;;;;;;0.43;0.20;;;;;;;;;;5020464;28;20093;-78
2023/12/24 07:26:54;;;;;;;0.88;0.20;;;;;;;;;;5036465;28;20113;-78
2023/12/24 07:29:19;;;;;;;0.10;0.10;;;;;;;;;;5035535;28;20029;-77
2023/12/24 07:31:46;;;;;;;0.15;0.10;;;;;;;;;;5036410;28;20535;-78
2023/12/24 07:34:11;;;;;;;0.60;0.20;;;;;;;;;;5035802;28;20171;-78
2023/12/24 07:36:37;;;;;;;0.63;0.20;;;;;;;;;;5019417;28;20061;-77
2023/12/24 07:39:03;;;;;;;0.52;0.20;;;;;;;;;;5036471;28;20032;-77
2023/12/24 07:41:30;;;;;;;0.60;0.20;;;;;;;;;;5036258;28;20029;-77
2023/12/24 07:43:55;;;;;;;0.13;0.13;;;;;;;;;;5016737;28;20057;-76
2023/12/24 07:46:21;;;;;;;1.52;0.10;;;;;;;;;;4984104;28;20092;-76
2023/12/24 07:48:46;;;;;;;0.85;0.20;;;;;;;;;;4983851;28;20022;-77
2023/12/24 07:51:12;;;;;;;0.80;0.30;;;;;;;;;;4999816;28;20358;-77
2023/12/24 07:53:37;;;;;;;0.85;0.10;;;;;;;;;;5016253;28;20101;-78
2023/12/24 07:56:03;;;;;;;0.70;0.30;;;;;;;;;;5015415;28;20026;-78
2023/12/24 07:58:28;;;;;;;0.60;0.10;;;;;;;;;;5016476;28;20029;-77
2023/12/24 08:00:54;;;;;;;1.65;0.40;;;;;;;;;;5035874;28;20029;-78
2023/12/24 08:03:20;;;;;;;0.90;0.10;;;;;;;;;;5035728;28;20480;-77
2023/12/24 08:05:45;;;;;;;0.35;0.15;;;;;;;;;;5035734;28;20063;-77
2023/12/24 08:08:11;;;;;;;0.28;0.13;;;;;;;;;;5041107;28;20034;-76
2023/12/24 08:10:36;;;;;;;2.70;0.20;;;;;;;;;;5025063;28;20109;-77
2023/12/24 08:13:02;;;;;;;0.95;0.30;;;;;;;;;;5039479;28;20033;-77
2023/12/24 08:15:27;;;;;;;0.38;0.20;;;;;;;;;;5040172;28;20026;-77
2023/12/24 08:17:53;;;;;;;0.63;0.38;;;;;;;;;;5024391;28;20034;-77
2023/12/24 08:20:21;;;;;;;1.48;0.40;;;;;;;;;;5039203;28;20030;-78
2023/12/24 08:22:46;;;;;;;1.27;0.33;;;;;;;;;;5037989;28;20086;-77
2023/12/24 08:25:12;;;;;;;0.43;0.17;;;;;;;;;;5035069;28;20825;-76
2023/12/24 08:27:37;;;;;;;0.20;0.20;;;;;;;;;;5038598;28;20087;-77
2023/12/24 08:30:03;;;;;;;1.60;0.57;;;;;;;;;;5002961;28;20037;-76
2023/12/24 08:32:29;;;;;;;1.00;0.40;;;;;;;;;;5018201;28;20030;-77
2023/12/24 08:34:54;;;;;;;1.27;0.20;;;;;;;;;;5001511;28;20087;-78
2023/12/24 08:37:20;;;;;;;0.50;0.20;;;;;;;;;;5005085;28;20056;-78
2023/12/24 08:39:45;;;;;;;0.63;0.30;;;;;;;;;;5019343;28;20091;-79
2023/12/24 08:42:11;;;;;;;0.32;0.20;;;;;;;;;;5018927;28;20026;-77
2023/12/24 08:44:37;;;;;;;0.98;0.28;;;;;;;;;;5036789;28;20040;-79
2023/12/24 08:47:03;;;;;;;0.40;0.22;;;;;;;;;;5035020;28;20045;-77
2023/12/24 08:49:28;;;;;;;0.50;0.32;;;;;;;;;;5035058;28;20400;-78
2023/12/24 08:51:54;;;;;;;0.45;0.28;;;;;;;;;;4990972;28;20034;-78
2023/12/24 08:54:19;;;;;;;0.43;0.30;;;;;;;;;;4998895;28;20467;-78
2023/12/24 08:56:45;;;;;;;0.65;0.30;;;;;;;;;;5017321;28;20040;-78
2023/12/24 08:59:10;;;;;;;0.73;0.32;;;;;;;;;;5016117;28;20038;-77
2023/12/24 09:01:40;;;;;;;1.05;0.35;;;;;;;;;;5019625;28;20026;-77
2023/12/24 09:04:06;;;;;;;1.35;0.40;;;;;;;;;;5036447;28;20081;-77
2023/12/24 09:06:32;;;;;;;1.13;0.30;;;;;;;;;;5035415;28;20060;-78
2023/12/24 09:08:57;;;;;;;1.20;0.20;;;;;;;;;;5033779;28;20420;-77
2023/12/24 09:11:23;;;;;;;1.75;0.10;;;;;;;;;;5034099;28;20029;-77
2023/12/24 09:13:48;;;;;;;0.55;0.10;;;;;;;;;;5015739;28;20029;-78
2023/12/24 09:16:14;;;;;;;0.30;0.20;;;;;;;;;;5000064;28;20435;-78
2023/12/24 09:18:40;;;;;;;0.10;0.10;;;;;;;;;;5032093;28;20025;-77
2023/12/24 09:21:05;;;;;;;1.80;0.20;;;;;;;;;;5033735;28;20112;-77
2023/12/24 09:23:31;;;;;;;0.22;0.10;;;;;;;;;;5016797;28;20037;-77
2023/12/24 09:25:56;;;;;;;0.20;0.13;;;;;;;;;;5034708;28;20112;-77
2023/12/24 09:28:22;;;;;;;1.05;0.20;;;;;;;;;;5034770;28;20029;-77
2023/12/24 09:30:48;;;;;;;0.93;0.30;;;;;;;;;;5019947;28;20037;-76
2023/12/24 09:33:13;;;;;;;0.57;0.20;;;;;;;;;;5036224;28;20037;-78
2023/12/24 09:35:40;;;;;;;0.30;0.10;;;;;;;;;;5032484;28;20026;-78
2023/12/24 09:38:06;;;;;;;0.43;0.20;;;;;;;;;;5035397;28;20086;-78
2023/12/24 09:40:31;;;;;;;0.40;0.20;;;;;;;;;;5035275;28;20021;-77
2023/12/24 09:42:57;;;;;;;0.30;0.20;;;;;;;;;;5033337;28;20040;-79
2023/12/24 09:45:23;;;;;;;0.05;0.05;;;;;;;;;;5035712;28;20033;-77
2023/12/24 09:47:48;;;;;;;0.10;0.08;;;;;;;;;;5035872;28;20104;-78
2023/12/24 09:50:15;;;;;;;2.38;0.10;;;;;;;;;;5034407;28;20029;-78
2023/12/24 09:52:41;;;;;;;0.57;0.20;;;;;;;;;;5032329;28;20029;-78
2023/12/24 09:55:07;;;;;;;2.10;0.20;;;;;;;;;;5033636;28;20451;-78
2023/12/24 09:57:32;;;;;;;0.88;0.30;;;;;;;;;;5035810;28;20033;-77
2023/12/24 09:59:58;;;;;;;0.52;0.30;;;;;;;;;;5017490;28;20494;-78
2023/12/24 10:02:24;;;;;;;0.40;0.20;;;;;;;;;;5035312;28;20040;-77
2023/12/24 10:04:49;;;;;;;1.08;0.20;;;;;;;;;;5004402;28;20057;-79
2023/12/24 10:07:15;;;;;;;0.43;0.22;;;;;;;;;;4998761;28;20049;-77
2023/12/24 10:09:45;;;;;;;0.10;0.10;;;;;;;;;;5014876;28;20103;-78
2023/12/24 10:12:10;;;;;;;0.20;0.20;;;;;;;;;;4998626;28;20042;-77
2023/12/24 10:14:36;;;;;;;0.30;0.20;;;;;;;;;;5016119;28;20033;-77
2023/12/24 10:17:03;;;;;;;0.20;0.10;;;;;;;;;;4999052;28;20032;-78
2023/12/24 10:19:29;;;;;;;0.10;0.10;;;;;;;;;;5017628;28;20026;-77
2023/12/24 10:22:01;;;;;;;0.20;0.10;;;;;;;;;;5027961;28;20100;-78
2023/12/24 10:24:31;;;;;;;0.88;0.35;;;;;;;;;;5020565;28;20038;-77
2023/12/24 10:27:06;;;;;;;0.70;0.20;;;;;;;;;;5020107;28;20045;-77
2023/12/24 10:29:33;;;;;;;0.52;0.25;;;;;;;;;;5037347;28;20033;-77
2023/12/24 10:31:59;;;;;;;0.40;0.20;;;;;;;;;;5021274;28;20036;-77
2023/12/24 10:34:24;;;;;;;0.22;0.10;;;;;;;;;;5036985;28;20217;-76
2023/12/24 10:36:50;;;;;;;1.92;0.20;;;;;;;;;;5036747;28;20449;-77
2023/12/24 10:39:24;;;;;;;0.10;0.00;;;;;;;;;;5020167;28;20030;-77
2023/12/24 10:41:56;;;;;;;0.10;0.10;;;;;;;;;;5038987;28;20022;-77
2023/12/24 10:44:22;;;;;;;0.77;0.20;;;;;;;;;;5037671;28;20040;-78
2023/12/24 10:46:48;;;;;;;0.13;0.10;;;;;;;;;;5036058;28;20052;-77
2023/12/24 10:49:13;;;;;;;0.47;0.30;;;;;;;;;;5039299;28;20045;-80
2023/12/24 10:51:39;;;;;;;0.40;0.28;;;;;;;;;;5043228;28;20025;-77
2023/12/24 10:54:08;;;;;;;0.43;0.17;;;;;;;;;;5021939;28;20021;-77
2023/12/24 10:56:43;;;;;;;0.35;0.20;;;;;;;;;;5041079;28;20025;-77
2023/12/24 10:59:20;;;;;;;0.30;0.17;;;;;;;;;;5020952;28;20045;-78
2023/12/24 11:01:48;;;;;;;0.50;0.20;;;;;;;;;;5037851;28;20033;-78
2023/12/24 11:04:33;;;;;;;0.15;0.10;;;;;;;;;;5036242;28;20021;-77
2023/12/24 11:07:04;;;;;;;0.28;0.20;;;;;;;;;;5040474;28;20029;-77
2023/12/24 11:09:29;;;;;;;0.35;0.17;;;;;;;;;;5042204;28;20025;-78
2023/12/24 11:11:55;;;;;;;0.32;0.20;;;;;;;;;;5039281;28;20112;-77
2023/12/24 11:14:37;;;;;;;1.00;0.30;;;;;;;;;;5040926;28;20117;-77
2023/12/24 11:17:05;;;;;;;0.55;0.25;;;;;;;;;;5043280;28;20021;-77
2023/12/24 11:19:32;;;;;;;1.17;0.40;;;;;;;;;;5042247;28;20021;-77
2023/12/24 11:22:04;;;;;;;0.30;0.20;;;;;;;;;;5040414;28;20087;-77
2023/12/24 11:24:30;;;;;;;1.90;0.40;;;;;;;;;;5041832;28;20040;-77
2023/12/24 11:26:55;;;;;;;0.68;0.20;;;;;;;;;;5026428;28;20033;-77
2023/12/24 11:29:40;;;;;;;0.38;0.22;;;;;;;;;;5010354;28;20041;-77
2023/12/24 11:32:23;;;;;;;0.55;0.20;;;;;;;;;;5018047;28;20129;-78
2023/12/24 11:34:49;;;;;;;0.47;0.30;;;;;;;;;;4998276;28;20030;-77
2023/12/24 11:37:25;;;;;;;0.20;0.20;;;;;;;;;;5015224;28;20025;-77
2023/12/24 11:40:12;;;;;;;0.85;0.30;;;;;;;;;;5014746;28;20033;-77
2023/12/24 11:42:46;;;;;;;1.10;0.32;;;;;;;;;;4998339;28;20033;-77
2023/12/24 11:45:18;;;;;;;0.90;0.40;;;;;;;;;;5014416;28;20048;-78
2023/12/24 11:47:44;;;;;;;1.65;0.30;;;;;;;;;;4997460;28;20095;-78
2023/12/24 11:50:10;;;;;;;0.65;0.25;;;;;;;;;;4999767;28;20480;-77
2023/12/24 11:52:41;;;;;;;1.17;0.20;;;;;;;;;;5000884;28;20034;-78
2023/12/24 11:55:07;;;;;;;0.00;0.00;;;;;;;;;;5016915;28;20041;-78
2023/12/24 11:57:32;;;;;;;0.20;0.10;;;;;;;;;;5033770;28;20480;-77
2023/12/24 11:59:58;;;;;;;0.52;0.30;;;;;;;;;;5000550;28;20033;-78
2023/12/24 12:02:24;;;;;;;0.93;0.20;;;;;;;;;;5017049;28;20025;-77
2023/12/24 12:04:50;;;;;;;0.30;0.13;;;;;;;;;;5000884;28;20124;-77
2023/12/24 12:07:15;;;;;;;0.38;0.15;;;;;;;;;;5035032;28;20025;-77
2023/12/24 12:09:41;;;;;;;0.03;0.03;;;;;;;;;;5032485;28;20150;-77
2023/12/24 12:12:07;;;;;;;0.50;0.20;;;;;;;;;;5017184;28;20431;-77
2023/12/24 12:14:32;;;;;;;0.20;0.10;;;;;;;;;;5032751;28;20033;-78
2023/12/24 12:16:58;;;;;;;0.20;0.20;;;;;;;;;;5033674;28;20022;-77
2023/12/24 12:19:23;;;;;;;0.68;0.25;;;;;;;;;;5015449;28;20041;-77
2023/12/24 12:21:48;;;;;;;0.75;0.30;;;;;;;;;;5016821;28;20033;-78
2023/12/24 12:24:14;;;;;;;0.40;0.20;;;;;;;;;;5032706;28;20029;-77
2023/12/24 12:26:39;;;;;;;0.32;0.30;;;;;;;;;;5034966;28;20479;-77
2023/12/24 12:29:05;;;;;;;2.35;0.30;;;;;;;;;;5017915;28;20121;-77
2023/12/24 12:31:31;;;;;;;1.08;0.30;;;;;;;;;;5035842;28;20034;-77
2023/12/24 12:33:59;;;;;;;0.98;0.60;;;;;;;;;;5035850;28;20048;-77
2023/12/24 12:36:24;;;;;;;0.22;0.13;;;;;;;;;;5029824;28;20038;-77
2023/12/24 12:38:50;;;;;;;0.80;0.20;;;;;;;;;;5014438;28;20030;-77
2023/12/24 12:41:15;;;;;;;0.55;0.32;;;;;;;;;;5030436;28;20025;-78
2023/12/24 12:43:41;;;;;;;0.75;0.25;;;;;;;;;;5034526;28;20033;-77
2023/12/24 12:46:06;;;;;;;0.50;0.20;;;;;;;;;;5032857;28;20051;-77
2023/12/24 12:48:32;;;;;;;0.65;0.20;;;;;;;;;;5034762;28;20083;-77
2023/12/24 12:50:57;;;;;;;0.20;0.13;;;;;;;;;;5035225;28;20079;-77
2023/12/24 12:53:23;;;;;;;0.82;0.30;;;;;;;;;;5033358;28;20029;-79
2023/12/24 12:55:49;;;;;;;0.50;0.30;;;;;;;;;;5033425;28;20071;-78
2023/12/24 12:58:14;;;;;;;0.90;0.40;;;;;;;;;;5015932;28;20025;-79
2023/12/24 13:00:40;;;;;;;0.45;0.20;;;;;;;;;;5034958;28;20022;-78
2023/12/24 13:03:06;;;;;;;0.25;0.10;;;;;;;;;;5017088;28;20029;-78
2023/12/24 13:05:32;;;;;;;1.08;0.15;;;;;;;;;;5034876;28;20087;-78
2023/12/24 13:08:11;;;;;;;1.23;0.20;;;;;;;;;;5017816;28;20037;-79
2023/12/24 13:10:38;;;;;;;0.85;0.30;;;;;;;;;;5035340;28;20492;-79
2023/12/24 13:13:10;;;;;;;0.20;0.10;;;;;;;;;;5033672;28;20083;-78
2023/12/24 13:15:36;;;;;;;0.55;0.17;;;;;;;;;;5018911;28;20120;-78
2023/12/24 13:18:14;;;;;;;0.77;0.40;;;;;;;;;;5014764;28;20444;-79
2023/12/24 13:20:41;;;;;;;0.15;0.10;;;;;;;;;;5015038;28;20021;-79
2023/12/24 13:23:10;;;;;;;1.15;0.30;;;;;;;;;;5030714;28;20029;-78
2023/12/24 13:25:39;;;;;;;0.25;0.25;;;;;;;;;;5015168;28;20115;-78
2023/12/24 13:28:04;;;;;;;0.90;0.40;;;;;;;;;;5012737;28;20130;-77
2023/12/24 13:30:30;;;;;;;1.40;0.40;;;;;;;;;;4989951;28;20029;-78
2023/12/24 13:32:56;;;;;;;0.85;0.40;;;;;;;;;;5015303;28;20033;-78
2023/12/24 13:35:23;;;;;;;2.80;0.32;;;;;;;;;;5021385;28;20033;-78
2023/12/24 13:37:48;;;;;;;0.95;0.25;;;;;;;;;;5033334;28;20542;-76
2023/12/24 13:40:13;;;;;;;0.20;0.20;;;;;;;;;;5034179;28;20036;-78
2023/12/24 13:42:39;;;;;;;1.35;0.40;;;;;;;;;;5033314;28;20021;-78
2023/12/24 13:45:05;;;;;;;0.10;0.10;;;;;;;;;;5031736;28;20037;-77
2023/12/24 13:47:31;;;;;;;0.50;0.30;;;;;;;;;;5033205;28;20053;-78
2023/12/24 13:49:58;;;;;;;0.30;0.20;;;;;;;;;;5035560;28;20041;-78
2023/12/24 13:52:23;;;;;;;0.32;0.20;;;;;;;;;;5036409;28;20033;-78
2023/12/24 13:54:49;;;;;;;0.30;0.25;;;;;;;;;;5038548;28;20156;-77
2023/12/24 13:57:14;;;;;;;1.50;0.70;;;;;;;;;;5036990;28;20104;-78
2023/12/24 13:59:43;;;;;;;0.43;0.25;;;;;;;;;;5036795;28;20459;-78
2023/12/24 14:02:09;;;;;;;;;;;;;;;;;;5038392;28;20475;-77
2023/12/24 14:04:35;;;;;;;0.57;0.30;;;;;;;;;;5041464;28;19963;-78
2023/12/24 14:07:01;;;;;;;0.95;0.40;;;;;;;;;;5037741;28;20424;-78
2023/12/24 14:09:27;;;;;;;1.15;0.52;;;;;;;;;;5035967;28;20033;-79
2023/12/24 14:11:53;;;;;;;0.80;0.30;;;;;;;;;;5038240;28;20468;-78
2023/12/24 14:14:18;;;;;;;0.47;0.22;;;;;;;;;;5019698;28;20033;-78
2023/12/24 14:16:48;;;;;;;0.73;0.30;;;;;;;;;;5041835;28;20040;-78
2023/12/24 14:19:13;;;;;;;0.57;0.38;;;;;;;;;;5026652;28;20037;-77
2023/12/24 14:21:39;;;;;;;0.45;0.20;;;;;;;;;;5017806;28;20030;-78
2023/12/24 14:24:04;;;;;;;0.90;0.30;;;;;;;;;;5017871;28;20504;-78
2023/12/24 14:26:30;;;;;;;1.42;0.63;;;;;;;;;;5018094;28;20033;-78
2023/12/24 14:28:55;;;;;;;0.85;0.40;;;;;;;;;;5015960;28;20037;-78
2023/12/24 14:31:21;;;;;;;1.23;0.40;;;;;;;;;;5017683;28;20112;-79
2023/12/24 14:33:47;;;;;;;0.60;0.30;;;;;;;;;;4999644;28;20115;-78
2023/12/24 14:36:13;;;;;;;1.48;0.30;;;;;;;;;;5035603;28;20036;-77
2023/12/24 14:38:39;;;;;;;0.38;0.20;;;;;;;;;;5037284;28;20021;-79
2023/12/24 14:41:04;;;;;;;1.15;0.50;;;;;;;;;;5037003;28;20406;-78
2023/12/24 14:43:30;;;;;;;0.43;0.20;;;;;;;;;;5034786;28;20030;-78
2023/12/24 14:45:55;;;;;;;0.38;0.30;;;;;;;;;;5036813;28;20029;-78
2023/12/24 14:48:21;;;;;;;1.13;0.30;;;;;;;;;;5019096;28;20404;-76
2023/12/24 14:50:46;;;;;;;0.70;0.38;;;;;;;;;;5034677;28;20034;-78
2023/12/24 14:53:12;;;;;;;0.75;0.30;;;;;;;;;;5036880;28;20485;-77
2023/12/24 14:55:37;;;;;;;0.50;0.30;;;;;;;;;;5036390;28;20382;-78
2023/12/24 14:58:03;;;;;;;2.95;1.13;;;;;;;;;;5037164;28;20025;-77
2023/12/24 15:00:29;;;;;;;2.08;0.38;;;;;;;;;;5020062;28;20053;-78